sensor_id;sensor_type;location;lat;lon;timestamp;pressure;altitude;pressure_sealevel;temperature;humidity
15272;BME280;7737;51.578;7.268;2022-10-22T00:00:44;100549.41;;;11.87;100.00
15272;BME280;7737;51.578;7.268;2022-10-22T00:03:11;100552.06;;;11.87;100.00
15272;BME280;7737;51.578;7.268;2022-10-22T00:05:37;100553.00;;;11.86;100.00
15272;BME280;7737;51.578;7.268;2022-10-22T00:08:04;100558.44;;;11.85;100.00
15272;BME280;7737;51.578;7.268;2022-10-22T00:10:32;100558.44;;;11.85;100.00
15272;BME280;7737;51.578;7.268;2022-10-22T00:12:58;100561.19;;;11.83;100.00
15272;BME280;7737;51.578;7.268;2022-10-22T00:15:25;100565.28;;;11.89;100.00
15272;BME280;7737;51.578;7.268;2022-10-22T00:17:51;100566.41;;;11.85;100.00
15272;BME280;7737;51.578;7.268;2022-10-22T00:20:18;100563.75;;;11.85;100.00
15272;BME280;7737;51.578;7.268;2022-10-22T00:22:44;100573.97;;;11.77;100.00
15272;BME280;7737;51.578;7.268;2022-10-22T00:25:11;100569.22;;;11.66;100.00
15272;BME280;7737;51.578;7.268;2022-10-22T00:27:39;100578.53;;;11.75;100.00
15272;BME280;7737;51.578;7.268;2022-10-22T00:30:06;100582.75;;;11.79;100.00
15272;BME280;7737;51.578;7.268;2022-10-22T00:32:33;100588.06;;;11.79;100.00
15272;BME280;7737;51.578;7.268;2022-10-22T00:34:59;100587.13;;;11.80;100.00
15272;BME280;7737;51.578;7.268;2022-10-22T00:37:26;100587.13;;;11.80;100.00
15272;BME280;7737;51.578;7.268;2022-10-22T00:39:52;100589.19;;;11.75;100.00
15272;BME280;7737;51.578;7.268;2022-10-22T00:42:21;100582.31;;;11.71;100.00
15272;BME280;7737;51.578;7.268;2022-10-22T00:45:09;100581.28;;;11.73;100.00
15272;BME280;7737;51.578;7.268;2022-10-22T00:47:42;100585.47;;;11.61;100.00
15272;BME280;7737;51.578;7.268;2022-10-22T00:50:12;100584.72;;;11.59;100.00
15272;BME280;7737;51.578;7.268;2022-10-22T00:52:39;100583.84;;;11.59;100.00
15272;BME280;7737;51.578;7.268;2022-10-22T00:55:06;100578.72;;;11.72;100.00
15272;BME280;7737;51.578;7.268;2022-10-22T00:57:33;100582.72;;;11.63;100.00
15272;BME280;7737;51.578;7.268;2022-10-22T01:00:01;100577.50;;;11.61;100.00
15272;BME280;7737;51.578;7.268;2022-10-22T01:02:29;100579.56;;;11.56;100.00
15272;BME280;7737;51.578;7.268;2022-10-22T01:04:55;100579.13;;;11.64;100.00
15272;BME280;7737;51.578;7.268;2022-10-22T01:07:23;100579.19;;;11.62;100.00
15272;BME280;7737;51.578;7.268;2022-10-22T01:09:57;100578.69;;;11.56;100.00
15272;BME280;7737;51.578;7.268;2022-10-22T01:12:35;100575.06;;;11.41;100.00
15272;BME280;7737;51.578;7.268;2022-10-22T01:15:11;100572.91;;;11.32;100.00
15272;BME280;7737;51.578;7.268;2022-10-22T01:17:48;100571.19;;;11.31;100.00
15272;BME280;7737;51.578;7.268;2022-10-22T01:20:36;100569.56;;;11.44;100.00
15272;BME280;7737;51.578;7.268;2022-10-22T01:23:16;100573.00;;;11.46;100.00
15272;BME280;7737;51.578;7.268;2022-10-22T01:25:53;100571.13;;;11.48;100.00
15272;BME280;7737;51.578;7.268;2022-10-22T01:28:38;100564.69;;;11.52;100.00
15272;BME280;7737;51.578;7.268;2022-10-22T01:31:09;100570.59;;;11.57;100.00
15272;BME280;7737;51.578;7.268;2022-10-22T01:33:38;100565.63;;;11.51;100.00
15272;BME280;7737;51.578;7.268;2022-10-22T01:36:06;100572.00;;;11.49;100.00
15272;BME280;7737;51.578;7.268;2022-10-22T01:38:33;100572.81;;;11.49;100.00
15272;BME280;7737;51.578;7.268;2022-10-22T01:41:00;100562.72;;;11.56;100.00
15272;BME280;7737;51.578;7.268;2022-10-22T01:43:26;100556.25;;;11.44;100.00
15272;BME280;7737;51.578;7.268;2022-10-22T01:45:57;100561.50;;;11.30;100.00
15272;BME280;7737;51.578;7.268;2022-10-22T01:48:39;100553.25;;;11.35;100.00
15272;BME280;7737;51.578;7.268;2022-10-22T01:51:35;100550.34;;;11.39;100.00
15272;BME280;7737;51.578;7.268;2022-10-22T01:54:13;100559.59;;;11.32;100.00
15272;BME280;7737;51.578;7.268;2022-10-22T01:56:53;100551.63;;;11.32;100.00
15272;BME280;7737;51.578;7.268;2022-10-22T01:59:30;100551.47;;;11.35;100.00
15272;BME280;7737;51.578;7.268;2022-10-22T02:02:03;100549.47;;;11.39;100.00
15272;BME280;7737;51.578;7.268;2022-10-22T02:04:34;100549.28;;;11.26;100.00
15272;BME280;7737;51.578;7.268;2022-10-22T02:07:05;100541.84;;;11.17;100.00
15272;BME280;7737;51.578;7.268;2022-10-22T02:09:34;100551.69;;;11.31;100.00
15272;BME280;7737;51.578;7.268;2022-10-22T02:12:03;100554.44;;;11.29;100.00
15272;BME280;7737;51.578;7.268;2022-10-22T02:14:33;100549.41;;;11.25;100.00
15272;BME280;7737;51.578;7.268;2022-10-22T02:17:05;100559.88;;;11.28;100.00
15272;BME280;7737;51.578;7.268;2022-10-22T02:19:37;100559.78;;;11.29;100.00
15272;BME280;7737;51.578;7.268;2022-10-22T02:22:06;100556.31;;;10.96;100.00
15272;BME280;7737;51.578;7.268;2022-10-22T02:24:33;100555.94;;;11.02;100.00
15272;BME280;7737;51.578;7.268;2022-10-22T02:27:03;100553.72;;;11.10;100.00
15272;BME280;7737;51.578;7.268;2022-10-22T02:29:37;100566.63;;;11.18;100.00
15272;BME280;7737;51.578;7.268;2022-10-22T02:32:08;100571.09;;;11.17;100.00
15272;BME280;7737;51.578;7.268;2022-10-22T02:34:36;100570.84;;;11.22;100.00
15272;BME280;7737;51.578;7.268;2022-10-22T02:37:03;100561.41;;;11.32;100.00
15272;BME280;7737;51.578;7.268;2022-10-22T02:39:31;100567.06;;;11.26;100.00
15272;BME280;7737;51.578;7.268;2022-10-22T02:41:59;100574.63;;;11.33;100.00
15272;BME280;7737;51.578;7.268;2022-10-22T02:44:26;100569.94;;;11.38;100.00
15272;BME280;7737;51.578;7.268;2022-10-22T02:46:52;100570.75;;;11.23;100.00
15272;BME280;7737;51.578;7.268;2022-10-22T02:49:20;100568.16;;;11.06;100.00
15272;BME280;7737;51.578;7.268;2022-10-22T02:51:47;100573.53;;;11.05;100.00
15272;BME280;7737;51.578;7.268;2022-10-22T02:54:13;100574.06;;;10.95;100.00
15272;BME280;7737;51.578;7.268;2022-10-22T02:56:40;100582.22;;;11.08;100.00
15272;BME280;7737;51.578;7.268;2022-10-22T02:59:06;100585.66;;;11.10;100.00
15272;BME280;7737;51.578;7.268;2022-10-22T03:01:33;100584.88;;;11.08;100.00
15272;BME280;7737;51.578;7.268;2022-10-22T03:03:59;100580.19;;;11.13;100.00
15272;BME280;7737;51.578;7.268;2022-10-22T03:06:27;100583.97;;;11.09;100.00
15272;BME280;7737;51.578;7.268;2022-10-22T03:08:53;100581.56;;;11.20;100.00
15272;BME280;7737;51.578;7.268;2022-10-22T03:11:20;100580.66;;;11.04;100.00
15272;BME280;7737;51.578;7.268;2022-10-22T03:13:46;100574.13;;;10.94;100.00
15272;BME280;7737;51.578;7.268;2022-10-22T03:16:13;100578.78;;;11.06;100.00
15272;BME280;7737;51.578;7.268;2022-10-22T03:18:39;100577.78;;;11.09;100.00
15272;BME280;7737;51.578;7.268;2022-10-22T03:21:10;100589.03;;;11.14;100.00
15272;BME280;7737;51.578;7.268;2022-10-22T03:23:41;100585.22;;;11.02;100.00
15272;BME280;7737;51.578;7.268;2022-10-22T03:26:09;100582.63;;;11.00;100.00
15272;BME280;7737;51.578;7.268;2022-10-22T03:28:37;100590.69;;;10.99;100.00
15272;BME280;7737;51.578;7.268;2022-10-22T03:31:05;100585.72;;;10.93;100.00
15272;BME280;7737;51.578;7.268;2022-10-22T03:33:31;100590.06;;;10.94;100.00
15272;BME280;7737;51.578;7.268;2022-10-22T03:35:59;100597.44;;;10.89;100.00
15272;BME280;7737;51.578;7.268;2022-10-22T03:38:26;100608.47;;;10.98;100.00
15272;BME280;7737;51.578;7.268;2022-10-22T03:40:54;100583.22;;;10.90;100.00
15272;BME280;7737;51.578;7.268;2022-10-22T03:43:20;100594.88;;;10.87;100.00
15272;BME280;7737;51.578;7.268;2022-10-22T03:45:47;100591.25;;;10.88;100.00
15272;BME280;7737;51.578;7.268;2022-10-22T03:48:13;100601.38;;;10.82;100.00
15272;BME280;7737;51.578;7.268;2022-10-22T03:50:39;100598.63;;;10.83;100.00
15272;BME280;7737;51.578;7.268;2022-10-22T03:53:06;100607.97;;;10.75;100.00
15272;BME280;7737;51.578;7.268;2022-10-22T03:55:34;100604.09;;;10.80;100.00
15272;BME280;7737;51.578;7.268;2022-10-22T03:58:03;100601.63;;;10.77;100.00
15272;BME280;7737;51.578;7.268;2022-10-22T04:00:30;100603.56;;;10.74;100.00
15272;BME280;7737;51.578;7.268;2022-10-22T04:02:56;100601.84;;;10.73;100.00
15272;BME280;7737;51.578;7.268;2022-10-22T04:05:23;100616.25;;;10.69;100.00
15272;BME280;7737;51.578;7.268;2022-10-22T04:07:49;100607.94;;;10.58;100.00
15272;BME280;7737;51.578;7.268;2022-10-22T04:10:16;100614.13;;;10.58;100.00
15272;BME280;7737;51.578;7.268;2022-10-22T04:12:45;100613.28;;;10.58;100.00
15272;BME280;7737;51.578;7.268;2022-10-22T04:15:13;100619.34;;;10.60;100.00
15272;BME280;7737;51.578;7.268;2022-10-22T04:17:40;100613.88;;;10.63;100.00
15272;BME280;7737;51.578;7.268;2022-10-22T04:20:07;100620.13;;;10.62;100.00
15272;BME280;7737;51.578;7.268;2022-10-22T04:22:35;100615.31;;;10.53;100.00
15272;BME280;7737;51.578;7.268;2022-10-22T04:25:03;100618.13;;;10.50;100.00
15272;BME280;7737;51.578;7.268;2022-10-22T04:27:30;100620.69;;;10.34;100.00
15272;BME280;7737;51.578;7.268;2022-10-22T04:29:56;100620.44;;;10.38;100.00
15272;BME280;7737;51.578;7.268;2022-10-22T04:32:25;100622.28;;;10.19;100.00
15272;BME280;7737;51.578;7.268;2022-10-22T04:34:51;100622.16;;;10.22;100.00
15272;BME280;7737;51.578;7.268;2022-10-22T04:37:18;100623.59;;;10.29;100.00
15272;BME280;7737;51.578;7.268;2022-10-22T04:39:45;100627.16;;;10.28;100.00
15272;BME280;7737;51.578;7.268;2022-10-22T04:42:11;100623.72;;;10.26;100.00
15272;BME280;7737;51.578;7.268;2022-10-22T04:44:38;100615.81;;;10.25;100.00
15272;BME280;7737;51.578;7.268;2022-10-22T04:47:04;100614.81;;;10.27;100.00
15272;BME280;7737;51.578;7.268;2022-10-22T04:49:32;100616.38;;;10.31;100.00
15272;BME280;7737;51.578;7.268;2022-10-22T04:51:59;100612.09;;;10.29;100.00
15272;BME280;7737;51.578;7.268;2022-10-22T04:54:25;100614.66;;;10.30;100.00
15272;BME280;7737;51.578;7.268;2022-10-22T04:56:52;100613.97;;;10.27;100.00
15272;BME280;7737;51.578;7.268;2022-10-22T04:59:18;100618.84;;;10.17;100.00
15272;BME280;7737;51.578;7.268;2022-10-22T05:01:45;100626.19;;;10.12;100.00
15272;BME280;7737;51.578;7.268;2022-10-22T05:04:13;100631.38;;;10.15;100.00
15272;BME280;7737;51.578;7.268;2022-10-22T05:06:42;100626.38;;;10.26;100.00
15272;BME280;7737;51.578;7.268;2022-10-22T05:09:13;100636.06;;;10.27;100.00
15272;BME280;7737;51.578;7.268;2022-10-22T05:11:40;100634.06;;;10.32;100.00
15272;BME280;7737;51.578;7.268;2022-10-22T05:14:09;100632.19;;;10.34;100.00
15272;BME280;7737;51.578;7.268;2022-10-22T05:16:37;100638.13;;;10.39;100.00
15272;BME280;7737;51.578;7.268;2022-10-22T05:19:03;100635.16;;;10.46;100.00
15272;BME280;7737;51.578;7.268;2022-10-22T05:21:30;100647.59;;;10.45;100.00
15272;BME280;7737;51.578;7.268;2022-10-22T05:23:58;100637.16;;;10.40;100.00
15272;BME280;7737;51.578;7.268;2022-10-22T05:26:26;100636.56;;;10.53;100.00
15272;BME280;7737;51.578;7.268;2022-10-22T05:28:53;100641.63;;;10.57;100.00
15272;BME280;7737;51.578;7.268;2022-10-22T05:31:20;100651.78;;;10.49;100.00
15272;BME280;7737;51.578;7.268;2022-10-22T05:33:47;100652.50;;;10.53;100.00
15272;BME280;7737;51.578;7.268;2022-10-22T05:36:16;100653.91;;;10.43;100.00
15272;BME280;7737;51.578;7.268;2022-10-22T05:38:43;100656.19;;;10.50;100.00
15272;BME280;7737;51.578;7.268;2022-10-22T05:41:13;100657.66;;;10.38;100.00
15272;BME280;7737;51.578;7.268;2022-10-22T05:43:40;100649.63;;;10.40;100.00
15272;BME280;7737;51.578;7.268;2022-10-22T05:46:08;100654.13;;;10.38;100.00
15272;BME280;7737;51.578;7.268;2022-10-22T05:48:35;100654.06;;;10.57;100.00
15272;BME280;7737;51.578;7.268;2022-10-22T05:51:02;100659.69;;;11.02;100.00
15272;BME280;7737;51.578;7.268;2022-10-22T05:53:30;100662.63;;;11.30;100.00
15272;BME280;7737;51.578;7.268;2022-10-22T05:55:59;100666.22;;;11.29;100.00
15272;BME280;7737;51.578;7.268;2022-10-22T05:58:27;100677.47;;;11.34;100.00
15272;BME280;7737;51.578;7.268;2022-10-22T06:00:54;100685.19;;;11.06;100.00
15272;BME280;7737;51.578;7.268;2022-10-22T06:03:20;100682.19;;;11.29;100.00
15272;BME280;7737;51.578;7.268;2022-10-22T06:05:47;100684.53;;;11.84;100.00
15272;BME280;7737;51.578;7.268;2022-10-22T06:08:13;100688.06;;;11.69;100.00
15272;BME280;7737;51.578;7.268;2022-10-22T06:10:41;100692.69;;;11.15;100.00
15272;BME280;7737;51.578;7.268;2022-10-22T06:13:08;100702.88;;;10.90;100.00
15272;BME280;7737;51.578;7.268;2022-10-22T06:15:36;100698.19;;;10.95;100.00
15272;BME280;7737;51.578;7.268;2022-10-22T06:18:03;100701.13;;;11.23;100.00
15272;BME280;7737;51.578;7.268;2022-10-22T06:20:29;100714.84;;;10.64;100.00
15272;BME280;7737;51.578;7.268;2022-10-22T06:22:55;100702.25;;;10.51;100.00
15272;BME280;7737;51.578;7.268;2022-10-22T06:25:22;100696.94;;;10.68;100.00
15272;BME280;7737;51.578;7.268;2022-10-22T06:27:49;100712.44;;;10.77;100.00
15272;BME280;7737;51.578;7.268;2022-10-22T06:30:16;100722.44;;;10.89;100.00
15272;BME280;7737;51.578;7.268;2022-10-22T06:32:44;100730.09;;;10.95;100.00
15272;BME280;7737;51.578;7.268;2022-10-22T06:35:11;100732.44;;;11.18;100.00
15272;BME280;7737;51.578;7.268;2022-10-22T06:37:37;100731.34;;;11.05;100.00
15272;BME280;7737;51.578;7.268;2022-10-22T06:40:05;100737.34;;;11.26;100.00
15272;BME280;7737;51.578;7.268;2022-10-22T06:42:31;100740.81;;;11.11;100.00
15272;BME280;7737;51.578;7.268;2022-10-22T06:44:58;100743.41;;;10.95;100.00
15272;BME280;7737;51.578;7.268;2022-10-22T06:47:24;100743.88;;;11.03;100.00
15272;BME280;7737;51.578;7.268;2022-10-22T06:49:52;100750.44;;;11.30;100.00
15272;BME280;7737;51.578;7.268;2022-10-22T06:52:19;100751.38;;;11.29;100.00
15272;BME280;7737;51.578;7.268;2022-10-22T06:54:45;100756.44;;;11.51;100.00
15272;BME280;7737;51.578;7.268;2022-10-22T06:57:11;100757.75;;;11.77;100.00
15272;BME280;7737;51.578;7.268;2022-10-22T06:59:38;100749.91;;;11.74;100.00
15272;BME280;7737;51.578;7.268;2022-10-22T07:02:05;100761.03;;;11.82;100.00
15272;BME280;7737;51.578;7.268;2022-10-22T07:04:31;100768.81;;;12.02;100.00
15272;BME280;7737;51.578;7.268;2022-10-22T07:06:59;100770.53;;;12.34;100.00
15272;BME280;7737;51.578;7.268;2022-10-22T07:09:26;100761.75;;;12.63;100.00
15272;BME280;7737;51.578;7.268;2022-10-22T07:11:52;100775.16;;;12.77;100.00
15272;BME280;7737;51.578;7.268;2022-10-22T07:14:19;100771.84;;;13.04;100.00
15272;BME280;7737;51.578;7.268;2022-10-22T07:16:45;100777.84;;;13.23;100.00
15272;BME280;7737;51.578;7.268;2022-10-22T07:19:13;100790.56;;;13.33;100.00
15272;BME280;7737;51.578;7.268;2022-10-22T07:21:39;100792.88;;;13.54;100.00
15272;BME280;7737;51.578;7.268;2022-10-22T07:24:08;100802.34;;;13.59;100.00
15272;BME280;7737;51.578;7.268;2022-10-22T07:26:34;100811.56;;;13.54;100.00
15272;BME280;7737;51.578;7.268;2022-10-22T07:29:01;100809.75;;;13.54;100.00
15272;BME280;7737;51.578;7.268;2022-10-22T07:31:28;100819.03;;;13.77;100.00
15272;BME280;7737;51.578;7.268;2022-10-22T07:33:55;100813.63;;;13.78;100.00
15272;BME280;7737;51.578;7.268;2022-10-22T07:36:21;100813.25;;;13.84;100.00
15272;BME280;7737;51.578;7.268;2022-10-22T07:38:53;100826.91;;;13.94;100.00
15272;BME280;7737;51.578;7.268;2022-10-22T07:41:21;100824.69;;;14.00;100.00
15272;BME280;7737;51.578;7.268;2022-10-22T07:43:48;100829.09;;;14.16;100.00
15272;BME280;7737;51.578;7.268;2022-10-22T07:46:15;100833.97;;;14.23;100.00
15272;BME280;7737;51.578;7.268;2022-10-22T07:48:41;100829.22;;;14.42;100.00
15272;BME280;7737;51.578;7.268;2022-10-22T07:51:08;100836.00;;;14.48;100.00
15272;BME280;7737;51.578;7.268;2022-10-22T07:53:35;100834.41;;;14.72;100.00
15272;BME280;7737;51.578;7.268;2022-10-22T07:56:02;100839.75;;;14.72;100.00
15272;BME280;7737;51.578;7.268;2022-10-22T07:58:30;100842.78;;;14.80;100.00
15272;BME280;7737;51.578;7.268;2022-10-22T08:00:57;100840.09;;;14.94;100.00
15272;BME280;7737;51.578;7.268;2022-10-22T08:03:26;100843.47;;;15.10;100.00
15272;BME280;7737;51.578;7.268;2022-10-22T08:05:53;100835.16;;;15.27;100.00
15272;BME280;7737;51.578;7.268;2022-10-22T08:08:20;100834.00;;;15.32;100.00
15272;BME280;7737;51.578;7.268;2022-10-22T08:10:47;100840.59;;;15.13;100.00
15272;BME280;7737;51.578;7.268;2022-10-22T08:13:16;100839.63;;;15.14;100.00
15272;BME280;7737;51.578;7.268;2022-10-22T08:15:45;100832.41;;;15.02;100.00
15272;BME280;7737;51.578;7.268;2022-10-22T08:18:12;100840.59;;;15.13;100.00
15272;BME280;7737;51.578;7.268;2022-10-22T08:20:39;100839.72;;;15.40;100.00
15272;BME280;7737;51.578;7.268;2022-10-22T08:23:06;100825.94;;;15.58;100.00
15272;BME280;7737;51.578;7.268;2022-10-22T08:25:33;100830.66;;;15.55;100.00
15272;BME280;7737;51.578;7.268;2022-10-22T08:27:59;100828.97;;;15.66;100.00
15272;BME280;7737;51.578;7.268;2022-10-22T08:30:26;100823.59;;;15.66;100.00
15272;BME280;7737;51.578;7.268;2022-10-22T08:32:55;100826.38;;;15.65;100.00
15272;BME280;7737;51.578;7.268;2022-10-22T08:35:22;100827.91;;;15.69;100.00
15272;BME280;7737;51.578;7.268;2022-10-22T08:37:48;100823.59;;;15.79;100.00
15272;BME280;7737;51.578;7.268;2022-10-22T08:40:20;100824.69;;;15.89;100.00
15272;BME280;7737;51.578;7.268;2022-10-22T08:43:07;100821.03;;;15.90;100.00
15272;BME280;7737;51.578;7.268;2022-10-22T08:45:39;100824.03;;;15.73;100.00
15272;BME280;7737;51.578;7.268;2022-10-22T08:48:22;100828.63;;;15.71;100.00
15272;BME280;7737;51.578;7.268;2022-10-22T08:50:55;100833.25;;;15.69;100.00
15272;BME280;7737;51.578;7.268;2022-10-22T08:53:27;100839.03;;;15.63;100.00
15272;BME280;7737;51.578;7.268;2022-10-22T08:55:55;100832.06;;;15.73;100.00
15272;BME280;7737;51.578;7.268;2022-10-22T08:58:28;100837.53;;;15.84;100.00
15272;BME280;7737;51.578;7.268;2022-10-22T09:00:58;100829.09;;;15.77;100.00
15272;BME280;7737;51.578;7.268;2022-10-22T09:03:45;100839.69;;;15.92;100.00
15272;BME280;7737;51.578;7.268;2022-10-22T09:06:16;100833.47;;;15.78;100.00
15272;BME280;7737;51.578;7.268;2022-10-22T09:08:45;100838.84;;;15.91;100.00
15272;BME280;7737;51.578;7.268;2022-10-22T09:11:23;100832.41;;;15.81;100.00
15272;BME280;7737;51.578;7.268;2022-10-22T09:13:50;100838.22;;;15.88;100.00
15272;BME280;7737;51.578;7.268;2022-10-22T09:16:21;100840.97;;;15.86;100.00
15272;BME280;7737;51.578;7.268;2022-10-22T09:19:02;100834.78;;;15.98;100.00
15272;BME280;7737;51.578;7.268;2022-10-22T09:21:37;100826.84;;;16.09;100.00
15272;BME280;7737;51.578;7.268;2022-10-22T09:24:11;100824.69;;;16.02;100.00
15272;BME280;7737;51.578;7.268;2022-10-22T09:26:39;100827.78;;;16.08;100.00
15272;BME280;7737;51.578;7.268;2022-10-22T09:29:13;100836.16;;;16.16;100.00
15272;BME280;7737;51.578;7.268;2022-10-22T09:31:42;100834.88;;;16.09;100.00
15272;BME280;7737;51.578;7.268;2022-10-22T09:34:13;100822.53;;;16.19;100.00
15272;BME280;7737;51.578;7.268;2022-10-22T09:36:39;100819.94;;;16.30;100.00
15272;BME280;7737;51.578;7.268;2022-10-22T09:39:20;100835.19;;;16.30;100.00
15272;BME280;7737;51.578;7.268;2022-10-22T09:41:48;100841.19;;;16.33;100.00
15272;BME280;7737;51.578;7.268;2022-10-22T09:44:14;100826.88;;;16.45;100.00
15272;BME280;7737;51.578;7.268;2022-10-22T09:46:42;100840.09;;;16.49;100.00
15272;BME280;7737;51.578;7.268;2022-10-22T09:49:13;100836.41;;;16.50;100.00
15272;BME280;7737;51.578;7.268;2022-10-22T09:51:49;100844.06;;;16.56;100.00
15272;BME280;7737;51.578;7.268;2022-10-22T09:54:18;100835.81;;;16.59;100.00
15272;BME280;7737;51.578;7.268;2022-10-22T09:56:54;100835.59;;;16.49;100.00
15272;BME280;7737;51.578;7.268;2022-10-22T09:59:28;100832.38;;;16.57;100.00
15272;BME280;7737;51.578;7.268;2022-10-22T10:01:57;100841.78;;;16.50;100.00
15272;BME280;7737;51.578;7.268;2022-10-22T10:04:25;100854.47;;;16.48;100.00
15272;BME280;7737;51.578;7.268;2022-10-22T10:06:53;100849.09;;;16.48;100.00
15272;BME280;7737;51.578;7.268;2022-10-22T10:09:22;100852.53;;;16.50;100.00
15272;BME280;7737;51.578;7.268;2022-10-22T10:11:54;100858.88;;;16.49;100.00
15272;BME280;7737;51.578;7.268;2022-10-22T10:14:30;100857.72;;;16.53;100.00
15272;BME280;7737;51.578;7.268;2022-10-22T10:17:06;100851.47;;;16.65;100.00
15272;BME280;7737;51.578;7.268;2022-10-22T10:19:51;100862.13;;;16.54;100.00
15272;BME280;7737;51.578;7.268;2022-10-22T10:22:30;100855.25;;;16.62;100.00
15272;BME280;7737;51.578;7.268;2022-10-22T10:25:23;100859.22;;;16.57;100.00
15272;BME280;7737;51.578;7.268;2022-10-22T10:27:56;100869.22;;;16.55;100.00
15272;BME280;7737;51.578;7.268;2022-10-22T10:30:24;100872.91;;;16.52;100.00
15272;BME280;7737;51.578;7.268;2022-10-22T10:33:04;100869.69;;;16.47;100.00
15272;BME280;7737;51.578;7.268;2022-10-22T10:35:44;100869.75;;;16.60;100.00
15272;BME280;7737;51.578;7.268;2022-10-22T10:38:30;100876.25;;;16.68;100.00
15272;BME280;7737;51.578;7.268;2022-10-22T10:41:06;100883.91;;;16.62;100.00
15272;BME280;7737;51.578;7.268;2022-10-22T10:43:47;100878.53;;;16.62;100.00
15272;BME280;7737;51.578;7.268;2022-10-22T10:46:19;100876.38;;;16.67;100.00
15272;BME280;7737;51.578;7.268;2022-10-22T10:48:55;100874.22;;;16.72;100.00
15272;BME280;7737;51.578;7.268;2022-10-22T10:51:37;100872.56;;;16.82;100.00
15272;BME280;7737;51.578;7.268;2022-10-22T10:54:17;100866.03;;;16.86;100.00
15272;BME280;7737;51.578;7.268;2022-10-22T10:56:49;100865.31;;;16.95;100.00
15272;BME280;7737;51.578;7.268;2022-10-22T10:59:21;100867.41;;;17.15;100.00
15272;BME280;7737;51.578;7.268;2022-10-22T11:02:13;100865.81;;;17.13;100.00
15272;BME280;7737;51.578;7.268;2022-10-22T11:05:06;100862.41;;;17.22;100.00
15272;BME280;7737;51.578;7.268;2022-10-22T11:07:41;100862.03;;;17.15;100.00
15272;BME280;7737;51.578;7.268;2022-10-22T11:10:18;100859.88;;;17.20;100.00
15272;BME280;7737;51.578;7.268;2022-10-22T11:12:52;100876.34;;;17.39;100.00
15272;BME280;7737;51.578;7.268;2022-10-22T11:15:25;100867.97;;;17.31;100.00
15272;BME280;7737;51.578;7.268;2022-10-22T11:17:58;100864.31;;;17.32;100.00
15272;BME280;7737;51.578;7.268;2022-10-22T11:20:43;100865.72;;;17.49;100.00
15272;BME280;7737;51.578;7.268;2022-10-22T11:23:16;100872.19;;;17.46;100.00
15272;BME280;7737;51.578;7.268;2022-10-22T11:25:47;100868.50;;;17.36;100.00
15272;BME280;7737;51.578;7.268;2022-10-22T11:28:16;100874.38;;;17.41;100.00
15272;BME280;7737;51.578;7.268;2022-10-22T11:30:48;100865.97;;;17.46;100.00
15272;BME280;7737;51.578;7.268;2022-10-22T11:33:21;100875.84;;;17.45;100.00
15272;BME280;7737;51.578;7.268;2022-10-22T11:35:49;100873.88;;;17.47;100.00
15272;BME280;7737;51.578;7.268;2022-10-22T11:38:21;100874.75;;;17.48;100.00
15272;BME280;7737;51.578;7.268;2022-10-22T11:40:53;100881.44;;;17.55;100.00
15272;BME280;7737;51.578;7.268;2022-10-22T11:43:27;100874.16;;;17.44;100.00
15272;BME280;7737;51.578;7.268;2022-10-22T11:46:01;100872.59;;;17.53;100.00
15272;BME280;7737;51.578;7.268;2022-10-22T11:48:35;100877.97;;;17.53;100.00
15272;BME280;7737;51.578;7.268;2022-10-22T11:51:02;100884.00;;;17.56;100.00
15272;BME280;7737;51.578;7.268;2022-10-22T11:53:35;100875.56;;;17.61;100.00
15272;BME280;7737;51.578;7.268;2022-10-22T11:56:21;100883.78;;;17.59;100.00
15272;BME280;7737;51.578;7.268;2022-10-22T11:58:48;100869.38;;;17.72;100.00
15272;BME280;7737;51.578;7.268;2022-10-22T12:01:26;100877.44;;;17.72;100.00
15272;BME280;7737;51.578;7.268;2022-10-22T12:04:16;100874.78;;;17.83;100.00
15272;BME280;7737;51.578;7.268;2022-10-22T12:06:54;100873.09;;;17.82;100.00
15272;BME280;7737;51.578;7.268;2022-10-22T12:09:23;100874.81;;;17.94;100.00
15272;BME280;7737;51.578;7.268;2022-10-22T12:11:51;100865.53;;;17.87;100.00
15272;BME280;7737;51.578;7.268;2022-10-22T12:14:20;100867.38;;;17.97;100.00
15272;BME280;7737;51.578;7.268;2022-10-22T12:16:52;100864.31;;;18.02;100.00
15272;BME280;7737;51.578;7.268;2022-10-22T12:19:26;100856.84;;;17.94;100.00
15272;BME280;7737;51.578;7.268;2022-10-22T12:21:55;100862.56;;;17.90;100.00
15272;BME280;7737;51.578;7.268;2022-10-22T12:24:28;100864.78;;;17.96;100.00
15272;BME280;7737;51.578;7.268;2022-10-22T12:26:55;100862.81;;;17.76;100.00
15272;BME280;7737;51.578;7.268;2022-10-22T12:29:22;100861.53;;;17.69;100.00
15272;BME280;7737;51.578;7.268;2022-10-22T12:31:51;100862.03;;;17.62;100.00
15272;BME280;7737;51.578;7.268;2022-10-22T12:34:20;100864.59;;;17.64;100.00
15272;BME280;7737;51.578;7.268;2022-10-22T12:36:48;100855.91;;;17.60;100.00
15272;BME280;7737;51.578;7.268;2022-10-22T12:39:17;100858.59;;;17.60;100.00
15272;BME280;7737;51.578;7.268;2022-10-22T12:41:46;100857.50;;;17.63;100.00
15272;BME280;7737;51.578;7.268;2022-10-22T12:44:15;100861.16;;;17.62;100.00
15272;BME280;7737;51.578;7.268;2022-10-22T12:46:43;100870.03;;;17.51;100.00
15272;BME280;7737;51.578;7.268;2022-10-22T12:49:14;100870.44;;;17.58;100.00
15272;BME280;7737;51.578;7.268;2022-10-22T12:51:43;100865.91;;;17.58;100.00
15272;BME280;7737;51.578;7.268;2022-10-22T12:54:18;100860.34;;;17.73;100.00
15272;BME280;7737;51.578;7.268;2022-10-22T12:56:48;100851.31;;;17.74;100.00
15272;BME280;7737;51.578;7.268;2022-10-22T12:59:19;100859.38;;;17.74;100.00
15272;BME280;7737;51.578;7.268;2022-10-22T13:01:47;100856.16;;;17.69;100.00
15272;BME280;7737;51.578;7.268;2022-10-22T13:04:20;100859.13;;;17.77;100.00